UGI weather

San Juan /Uganik/ Seaplane Base
San Juan, Alaska, United States

Public forecast

Using degrees Fahrenheit for public forecast. Weather courtesy of forecast.io.

METAR (pilot weather report)

Closest report is Kodiak Airport, 26.5 nm (49.1 km) E. Retrieved 2019/07/21 00:53 UTC (30 minutes ago):

PADQ 210053Z 10003KT 10SM OVC065 16/13 A3013

TAF (pilot weather forecast)

Forecast is more than 12 hours old.

Closest forecast is Kodiak Airport, 26.5 nm (49.1 km) E. Retrieved 2019/07/20 00:27 UTC (1 day ago):

TAF PADQ 202325Z 2100/2124 12005KT P6SM VCSH SCT006 BKN025 FM211200 VRB03KT 5SM BR BKN005 FM212100 07005KT P6SM BKN030